createdAt,value
2018-05-29T00:00:03.017Z,99.99
2018-05-29T00:05:03.114Z,99.99
2018-05-29T00:10:03.717Z,99.99
2018-05-29T00:15:03.388Z,99.99
2018-05-29T00:20:02.954Z,96.56
2018-05-29T00:25:03.475Z,95.11
2018-05-29T00:30:03.029Z,93.81
2018-05-29T00:35:03.758Z,92.08
2018-05-29T00:40:03.430Z,88.89
2018-05-29T00:45:02.954Z,86.77
2018-05-29T00:50:03.678Z,84.36
2018-05-29T00:55:03.261Z,81.91
2018-05-29T01:00:02.817Z,77.96
2018-05-29T01:05:03.946Z,75.36
2018-05-29T01:10:03.539Z,73.33
2018-05-29T01:15:03.064Z,71.6
2018-05-29T01:20:03.646Z,69.57
2018-05-29T01:25:03.239Z,65.33
2018-05-29T01:30:03.704Z,62.41
2018-05-29T01:35:03.299Z,59.23
2018-05-29T01:40:02.797Z,55.77
2018-05-29T01:45:03.406Z,53.84
2018-05-29T01:50:02.936Z,52.4
2018-05-29T01:55:03.503Z,51.53
2018-05-29T02:00:02.996Z,50.25
2018-05-29T02:05:03.543Z,48.23
2018-05-29T02:10:03.174Z,45.92
2018-05-29T02:15:03.823Z,45.05
2018-05-29T02:20:03.424Z,44.38
2018-05-29T02:25:02.992Z,42.43
2018-05-29T02:30:03.464Z,40.7
2018-05-29T02:35:02.949Z,39.45
2018-05-29T02:40:03.552Z,38.78
2018-05-29T02:45:03.072Z,37.24
2018-05-29T02:50:03.619Z,35.3
2018-05-29T02:55:03.130Z,34.14
2018-05-29T03:00:03.633Z,33.08
2018-05-29T03:05:03.181Z,32.12
2018-05-29T03:10:03.769Z,31.45
2018-05-29T03:15:03.282Z,30.29
2018-05-29T03:20:02.817Z,30
2018-05-29T03:25:03.345Z,29.22
2018-05-29T03:30:02.909Z,27.59
2018-05-29T03:35:03.400Z,26.62
2018-05-29T03:40:02.973Z,26.43
2018-05-29T03:45:03.473Z,25.95
2018-05-29T03:50:03.056Z,24.9
2018-05-29T03:55:03.577Z,23.74
2018-05-29T04:00:03.131Z,22.88
2018-05-29T04:05:03.680Z,22.3
2018-05-29T04:10:03.892Z,21.05
2018-05-29T04:15:03.679Z,21.15
2018-05-29T04:20:03.259Z,22.02
2018-05-29T04:25:02.825Z,22.5
2018-05-29T04:30:03.694Z,23.18
2018-05-29T04:35:03.237Z,23.94
2018-05-29T04:40:02.914Z,25.11
2018-05-29T04:45:03.485Z,25.98
2018-05-29T04:50:03.038Z,26.75
2018-05-29T04:55:03.519Z,27.72
2018-05-29T05:00:03.087Z,28.59
2018-05-29T05:05:03.647Z,30.04
2018-05-29T05:10:03.309Z,31.11
2018-05-29T05:15:02.881Z,32.26
2018-05-29T05:20:03.428Z,33.33
2018-05-29T05:25:02.999Z,35.06
2018-05-29T05:30:03.790Z,35.65
2018-05-29T05:35:03.348Z,36.91
2018-05-29T05:40:02.946Z,37.87
2018-05-29T05:45:03.537Z,39.43
2018-05-29T05:50:03.183Z,41.65
2018-05-29T05:55:03.765Z,45.04
2018-05-29T06:00:03.646Z,47.19
2018-05-29T06:05:03.208Z,49.51
2018-05-29T06:10:03.784Z,52.23
2018-05-29T06:15:03.377Z,55.81
2018-05-29T06:20:02.921Z,59.02
2018-05-29T06:25:03.417Z,63.89
2018-05-29T06:30:02.975Z,67.88
2018-05-29T06:35:03.619Z,72.95
2018-05-29T06:40:03.192Z,77.05
2018-05-29T06:45:04.256Z,80.96
2018-05-29T06:50:02.903Z,84.97
2018-05-29T06:55:03.430Z,91.89
2018-05-29T07:00:03.055Z,96.41
2018-05-29T07:05:03.575Z,99.99
2018-05-29T07:10:03.186Z,99.99
2018-05-29T07:15:02.835Z,99.99
2018-05-29T07:20:03.390Z,99.99
2018-05-29T07:25:03.034Z,99.99
2018-05-29T07:30:03.634Z,99.99
2018-05-29T07:35:03.230Z,99.99
2018-05-29T07:40:02.876Z,99.99
2018-05-29T07:45:03.414Z,99.99
2018-05-29T07:50:03.032Z,99.99
2018-05-29T07:55:03.753Z,99.99
2018-05-29T08:00:03.335Z,99.99
2018-05-29T08:05:02.927Z,99.99
2018-05-29T08:10:03.550Z,99.37
2018-05-29T08:15:03.098Z,94.28
2018-05-29T08:20:03.698Z,91.2
2018-05-29T08:25:03.300Z,89.33
2018-05-29T08:30:02.844Z,86.15
2018-05-29T08:35:03.417Z,82.46
2018-05-29T08:40:02.943Z,79.76
2018-05-29T08:45:03.371Z,78.27
2018-05-29T08:50:02.931Z,76.05
2018-05-29T08:55:03.509Z,75.4
2018-05-29T09:00:03.028Z,73.86
2018-05-29T09:05:03.640Z,72.23
2018-05-29T09:10:03.162Z,70.56
2018-05-29T09:15:03.656Z,70.3
2018-05-29T09:20:03.766Z,69.45
2018-05-29T09:25:03.384Z,67.45
2018-05-29T09:30:02.940Z,68.23
2018-05-29T09:35:03.557Z,66.07
2018-05-29T09:40:03.139Z,66.46
2018-05-29T09:45:03.625Z,65.84
2018-05-29T09:50:03.323Z,66.43
2018-05-29T09:55:02.852Z,65.94
2018-05-29T10:00:03.383Z,65.74
2018-05-29T10:05:02.840Z,66.04
2018-05-29T10:10:03.496Z,65.28
2018-05-29T10:15:02.985Z,64.53
2018-05-29T10:20:03.489Z,63.84
2018-05-29T10:25:03.360Z,64.04
2018-05-29T10:30:02.805Z,63.31
2018-05-29T10:35:03.345Z,61.96
2018-05-29T10:40:02.921Z,61.54
2018-05-29T10:45:02.892Z,61.83
2018-05-29T10:50:03.389Z,60.81
2018-05-29T10:55:02.971Z,59.98
2018-05-29T11:00:03.535Z,59.34
2018-05-29T11:05:03.142Z,58
2018-05-29T11:10:03.732Z,57.64
2018-05-29T11:15:03.263Z,58.23
2018-05-29T11:20:03.165Z,57.19
2018-05-29T11:25:03.707Z,58.59
2018-05-29T11:30:03.283Z,58.48
2018-05-29T11:35:02.905Z,58.74
2018-05-29T11:40:03.409Z,57.81
2018-05-29T11:45:02.978Z,57.28
2018-05-29T11:50:03.515Z,56.19
2018-05-29T11:55:03.015Z,56.04
2018-05-29T12:00:03.525Z,56.38
2018-05-29T12:05:03.103Z,56.12
2018-05-29T12:10:03.632Z,55.35
2018-05-29T12:15:03.186Z,55.97
2018-05-29T12:20:03.705Z,55.55
2018-05-29T12:25:03.300Z,55.35
2018-05-29T12:30:02.842Z,55.55
2018-05-29T12:35:03.364Z,55.37
2018-05-29T12:40:02.906Z,56.73
2018-05-29T12:45:03.417Z,56.8
2018-05-29T12:50:02.983Z,57.56
2018-05-29T12:55:03.544Z,57.53
2018-05-29T13:00:03.041Z,57.92
2018-05-29T13:05:03.708Z,58.39
2018-05-29T13:10:03.372Z,58.78
2018-05-29T13:15:03.255Z,58.05
2018-05-29T13:20:02.767Z,58.05
2018-05-29T13:25:03.301Z,58.25
2018-05-29T13:30:02.810Z,58
2018-05-29T13:35:03.368Z,58.72
2018-05-29T13:40:03.013Z,64.11
2018-05-29T13:45:03.552Z,64.12
2018-05-29T13:50:03.062Z,68.16
2018-05-29T13:55:03.627Z,75.53
2018-05-29T14:00:03.167Z,75.59
2018-05-29T14:05:03.723Z,77.58
2018-05-29T14:10:03.172Z,78.4
2018-05-29T14:15:03.750Z,85.85
2018-05-29T14:20:03.343Z,89.85
2018-05-29T14:25:02.875Z,99.99
2018-05-29T14:30:03.385Z,99.99
2018-05-29T14:35:02.929Z,99.99
2018-05-29T14:40:03.516Z,99.99
2018-05-29T14:45:03.431Z,99.99
2018-05-29T14:50:03.019Z,99.99
2018-05-29T14:55:03.557Z,99.99
2018-05-29T15:00:03.461Z,99.99
2018-05-29T15:05:03.052Z,99.99
2018-05-29T15:10:03.661Z,99.99
2018-05-29T15:15:03.188Z,99.99
2018-05-29T15:20:02.776Z,99.99
2018-05-29T15:25:03.368Z,99.99
2018-05-29T15:30:02.944Z,99.99
2018-05-29T15:35:03.553Z,99.99
2018-05-29T15:40:03.217Z,99.99
2018-05-29T15:45:03.696Z,99.99
2018-05-29T15:50:03.239Z,99.99
2018-05-29T15:55:02.822Z,99.99
2018-05-29T16:00:03.330Z,99.99
2018-05-29T16:05:02.933Z,95.73
2018-05-29T16:10:03.565Z,93.61
2018-05-29T16:15:03.450Z,85.36
2018-05-29T16:20:03.065Z,80.91
2018-05-29T16:25:03.601Z,70.45
2018-05-29T16:30:03.158Z,61.19
2018-05-29T16:35:03.783Z,54.53
2018-05-29T16:40:03.409Z,51.7
2018-05-29T16:45:02.964Z,50.32
2018-05-29T16:50:03.523Z,49.46
2018-05-29T16:55:02.980Z,46.28
2018-05-29T17:00:03.517Z,44.42
2018-05-29T17:05:03.082Z,41.34
2018-05-29T17:10:03.687Z,39.29
2018-05-29T17:15:03.394Z,41.13
2018-05-29T17:20:03.068Z,38.43
2018-05-29T17:25:03.687Z,40.55
2018-05-29T17:30:03.188Z,46.62
2018-05-29T17:35:02.806Z,48.93
2018-05-29T17:40:03.364Z,48.74
2018-05-29T17:45:03.305Z,49.89
2018-05-29T17:50:02.840Z,45.07
2018-05-29T17:55:03.486Z,44.28
2018-05-29T18:00:03.133Z,38.79
2018-05-29T18:05:03.770Z,38.7
2018-05-29T18:10:03.380Z,37.06
2018-05-29T18:15:02.952Z,35.24
2018-05-29T18:20:03.549Z,34.27
2018-05-29T18:25:03.106Z,35.64
2018-05-29T18:30:03.729Z,35.83
2018-05-29T18:35:03.367Z,37.1
2018-05-29T18:40:02.897Z,36.99
2018-05-29T18:45:03.424Z,35.93
2018-05-29T18:50:03.159Z,34.38
2018-05-29T18:55:02.783Z,33.23
2018-05-29T19:00:03.410Z,30.82
2018-05-29T19:05:03.003Z,31.11
2018-05-29T19:10:03.617Z,30.73
2018-05-29T19:15:03.170Z,29.95
2018-05-29T19:20:03.728Z,30.74
2018-05-29T19:25:03.336Z,32.86
2018-05-29T19:30:03.240Z,32.84
2018-05-29T19:35:03.767Z,32.26
2018-05-29T19:40:03.439Z,32.17
2018-05-29T19:45:02.974Z,31.67
2018-05-29T19:50:03.503Z,31
2018-05-29T19:55:03.061Z,30.42
2018-05-29T20:00:03.675Z,30.13
2018-05-29T20:05:03.202Z,29.55
2018-05-29T20:10:02.809Z,28.69
2018-05-29T20:15:03.431Z,28.3
2018-05-29T20:20:03.215Z,26.84
2018-05-29T20:25:02.807Z,26.67
2018-05-29T20:30:03.359Z,27.62
2018-05-29T20:35:02.922Z,27.72
2018-05-29T20:40:03.556Z,28.02
2018-05-29T20:45:03.270Z,28.29
2018-05-29T20:50:03.109Z,27.42
2018-05-29T20:55:03.711Z,26.65
2018-05-29T21:00:03.259Z,24.82
2018-05-29T21:05:02.815Z,23.37
2018-05-29T21:10:03.415Z,23.18
2018-05-29T21:15:02.921Z,22.79
2018-05-29T21:20:03.538Z,22.31
2018-05-29T21:25:03.133Z,22.12
2018-05-29T21:30:03.716Z,21.44
2018-05-29T21:35:03.423Z,20.87
2018-05-29T21:40:03.018Z,20.1
2018-05-29T21:45:03.563Z,19.81
2018-05-29T21:50:03.049Z,19.23
2018-05-29T22:00:04.256Z,18.56
2018-05-29T22:05:02.808Z,18.27
2018-05-29T22:10:03.431Z,17.69
2018-05-29T22:15:02.985Z,17.31
2018-05-29T22:20:03.634Z,16.35
2018-05-29T22:25:03.038Z,16.73
2018-05-29T22:30:03.672Z,16.72
2018-05-29T22:35:03.286Z,15.95
2018-05-29T22:40:02.838Z,14.32
2018-05-29T22:45:03.448Z,13.65
2018-05-29T22:50:02.854Z,12.49
2018-05-29T22:55:03.316Z,12.11
2018-05-29T23:00:02.782Z,11.82
2018-05-29T23:05:03.659Z,12.3
2018-05-29T23:10:03.264Z,12.01
2018-05-29T23:15:02.860Z,11.92
2018-05-29T23:20:03.436Z,11.92
2018-05-29T23:25:03.028Z,11.63
2018-05-29T23:30:03.575Z,11.33
2018-05-29T23:35:03.891Z,11.33
2018-05-29T23:40:09.638Z,10.76
2018-05-29T23:45:03.741Z,10.28
2018-05-29T23:50:04.098Z,10.18
2018-05-29T23:55:05.841Z,7.78
